sensor_id;sensor_type;location;lat;lon;timestamp;temperature;humidity
45549;DHT22;31270;48.328;10.096;2023-07-31T00:01:11;14.00;99.90
45549;DHT22;31270;48.328;10.096;2023-07-31T00:03:36;14.00;99.90
45549;DHT22;31270;48.328;10.096;2023-07-31T00:06:02;14.00;99.90
45549;DHT22;31270;48.328;10.096;2023-07-31T00:08:28;14.00;99.90
45549;DHT22;31270;48.328;10.096;2023-07-31T00:10:53;14.00;99.90
45549;DHT22;31270;48.328;10.096;2023-07-31T00:13:19;14.00;99.90
45549;DHT22;31270;48.328;10.096;2023-07-31T00:15:44;14.00;99.90
45549;DHT22;31270;48.328;10.096;2023-07-31T00:18:10;14.00;99.90
45549;DHT22;31270;48.328;10.096;2023-07-31T00:20:35;14.00;99.90
45549;DHT22;31270;48.328;10.096;2023-07-31T00:23:01;13.90;99.90
45549;DHT22;31270;48.328;10.096;2023-07-31T00:25:27;14.00;99.90
45549;DHT22;31270;48.328;10.096;2023-07-31T00:27:52;13.90;99.90
45549;DHT22;31270;48.328;10.096;2023-07-31T00:30:18;13.90;99.90
45549;DHT22;31270;48.328;10.096;2023-07-31T00:32:44;13.80;99.90
45549;DHT22;31270;48.328;10.096;2023-07-31T00:35:10;13.80;99.90
45549;DHT22;31270;48.328;10.096;2023-07-31T00:37:35;13.80;99.90
45549;DHT22;31270;48.328;10.096;2023-07-31T00:40:01;13.80;99.90
45549;DHT22;31270;48.328;10.096;2023-07-31T00:42:28;13.90;99.90
45549;DHT22;31270;48.328;10.096;2023-07-31T00:44:54;13.80;99.90
45549;DHT22;31270;48.328;10.096;2023-07-31T00:47:20;13.80;99.90
45549;DHT22;31270;48.328;10.096;2023-07-31T00:49:45;13.90;99.90
45549;DHT22;31270;48.328;10.096;2023-07-31T00:52:11;13.90;99.90
45549;DHT22;31270;48.328;10.096;2023-07-31T00:54:37;13.80;99.90
45549;DHT22;31270;48.328;10.096;2023-07-31T00:57:03;13.90;99.90
45549;DHT22;31270;48.328;10.096;2023-07-31T00:59:28;13.80;99.90
45549;DHT22;31270;48.328;10.096;2023-07-31T01:01:54;13.70;99.90
45549;DHT22;31270;48.328;10.096;2023-07-31T01:04:20;13.60;99.90
45549;DHT22;31270;48.328;10.096;2023-07-31T01:07:04;13.70;99.90
45549;DHT22;31270;48.328;10.096;2023-07-31T01:12:06;13.60;99.90
45549;DHT22;31270;48.328;10.096;2023-07-31T01:14:32;13.60;99.90
45549;DHT22;31270;48.328;10.096;2023-07-31T01:16:58;13.60;99.90
45549;DHT22;31270;48.328;10.096;2023-07-31T01:19:24;13.50;99.90
45549;DHT22;31270;48.328;10.096;2023-07-31T01:22:16;13.50;99.90
45549;DHT22;31270;48.328;10.096;2023-07-31T01:24:59;13.50;99.90
45549;DHT22;31270;48.328;10.096;2023-07-31T01:27:34;13.50;99.90
45549;DHT22;31270;48.328;10.096;2023-07-31T01:30:09;13.50;99.90
45549;DHT22;31270;48.328;10.096;2023-07-31T01:32:40;13.50;99.90
45549;DHT22;31270;48.328;10.096;2023-07-31T01:35:07;13.50;99.90
45549;DHT22;31270;48.328;10.096;2023-07-31T01:37:34;13.50;99.90
45549;DHT22;31270;48.328;10.096;2023-07-31T01:39:59;13.50;99.90
45549;DHT22;31270;48.328;10.096;2023-07-31T01:42:25;13.60;99.90
45549;DHT22;31270;48.328;10.096;2023-07-31T01:44:50;13.50;99.90
45549;DHT22;31270;48.328;10.096;2023-07-31T01:47:16;13.50;99.90
45549;DHT22;31270;48.328;10.096;2023-07-31T01:49:42;13.50;99.90
45549;DHT22;31270;48.328;10.096;2023-07-31T01:52:07;13.40;99.90
45549;DHT22;31270;48.328;10.096;2023-07-31T01:54:33;13.30;99.90
45549;DHT22;31270;48.328;10.096;2023-07-31T01:56:59;13.20;99.90
45549;DHT22;31270;48.328;10.096;2023-07-31T01:59:24;13.20;99.90
45549;DHT22;31270;48.328;10.096;2023-07-31T02:01:50;13.10;99.90
45549;DHT22;31270;48.328;10.096;2023-07-31T02:04:16;13.10;99.90
45549;DHT22;31270;48.328;10.096;2023-07-31T02:06:41;13.00;99.90
45549;DHT22;31270;48.328;10.096;2023-07-31T02:09:07;13.00;99.90
45549;DHT22;31270;48.328;10.096;2023-07-31T02:11:33;12.80;99.90
45549;DHT22;31270;48.328;10.096;2023-07-31T02:14:05;12.90;99.90
45549;DHT22;31270;48.328;10.096;2023-07-31T02:16:30;12.90;99.90
45549;DHT22;31270;48.328;10.096;2023-07-31T02:18:56;12.90;99.90
45549;DHT22;31270;48.328;10.096;2023-07-31T02:21:22;12.90;99.90
45549;DHT22;31270;48.328;10.096;2023-07-31T02:23:47;12.80;99.90
45549;DHT22;31270;48.328;10.096;2023-07-31T02:26:13;12.90;99.90
45549;DHT22;31270;48.328;10.096;2023-07-31T02:28:38;12.80;99.90
45549;DHT22;31270;48.328;10.096;2023-07-31T02:31:04;12.80;99.90
45549;DHT22;31270;48.328;10.096;2023-07-31T02:33:29;12.80;99.90
45549;DHT22;31270;48.328;10.096;2023-07-31T02:35:55;12.80;99.90
45549;DHT22;31270;48.328;10.096;2023-07-31T02:38:21;12.80;99.90
45549;DHT22;31270;48.328;10.096;2023-07-31T02:40:46;12.80;99.90
45549;DHT22;31270;48.328;10.096;2023-07-31T02:43:13;12.80;99.90
45549;DHT22;31270;48.328;10.096;2023-07-31T02:45:39;12.70;99.90
45549;DHT22;31270;48.328;10.096;2023-07-31T02:48:04;12.70;99.90
45549;DHT22;31270;48.328;10.096;2023-07-31T02:50:30;12.80;99.90
45549;DHT22;31270;48.328;10.096;2023-07-31T02:52:57;12.80;99.90
45549;DHT22;31270;48.328;10.096;2023-07-31T02:55:23;12.80;99.90
45549;DHT22;31270;48.328;10.096;2023-07-31T02:57:48;12.80;99.90
45549;DHT22;31270;48.328;10.096;2023-07-31T03:00:14;12.80;99.90
45549;DHT22;31270;48.328;10.096;2023-07-31T03:02:39;12.90;99.90
45549;DHT22;31270;48.328;10.096;2023-07-31T03:05:05;12.80;99.90
45549;DHT22;31270;48.328;10.096;2023-07-31T03:07:31;12.80;99.90
45549;DHT22;31270;48.328;10.096;2023-07-31T03:09:56;12.80;99.90
45549;DHT22;31270;48.328;10.096;2023-07-31T03:12:23;12.90;99.90
45549;DHT22;31270;48.328;10.096;2023-07-31T03:14:48;12.80;99.90
45549;DHT22;31270;48.328;10.096;2023-07-31T03:17:15;12.80;99.90
45549;DHT22;31270;48.328;10.096;2023-07-31T03:19:41;12.80;99.90
45549;DHT22;31270;48.328;10.096;2023-07-31T03:22:06;12.80;99.90
45549;DHT22;31270;48.328;10.096;2023-07-31T03:24:32;12.80;99.90
45549;DHT22;31270;48.328;10.096;2023-07-31T03:26:58;12.80;99.90
45549;DHT22;31270;48.328;10.096;2023-07-31T03:29:23;12.80;99.90
45549;DHT22;31270;48.328;10.096;2023-07-31T03:31:49;12.80;99.90
45549;DHT22;31270;48.328;10.096;2023-07-31T03:34:14;12.80;99.90
45549;DHT22;31270;48.328;10.096;2023-07-31T03:36:40;12.80;99.90
45549;DHT22;31270;48.328;10.096;2023-07-31T03:39:06;12.80;99.90
45549;DHT22;31270;48.328;10.096;2023-07-31T03:41:31;12.80;99.90
45549;DHT22;31270;48.328;10.096;2023-07-31T03:43:57;12.70;99.90
45549;DHT22;31270;48.328;10.096;2023-07-31T03:46:23;12.70;99.90
45549;DHT22;31270;48.328;10.096;2023-07-31T03:48:49;12.70;99.90
45549;DHT22;31270;48.328;10.096;2023-07-31T03:51:15;12.70;99.90
45549;DHT22;31270;48.328;10.096;2023-07-31T03:53:42;12.70;99.90
45549;DHT22;31270;48.328;10.096;2023-07-31T03:56:07;12.70;99.90
45549;DHT22;31270;48.328;10.096;2023-07-31T03:58:33;12.70;99.90
45549;DHT22;31270;48.328;10.096;2023-07-31T04:00:58;12.70;99.90
45549;DHT22;31270;48.328;10.096;2023-07-31T04:03:24;12.70;99.90
45549;DHT22;31270;48.328;10.096;2023-07-31T04:05:49;12.70;99.90
45549;DHT22;31270;48.328;10.096;2023-07-31T04:08:15;12.70;99.90
45549;DHT22;31270;48.328;10.096;2023-07-31T04:10:40;12.70;99.90
45549;DHT22;31270;48.328;10.096;2023-07-31T04:13:06;12.70;99.90
45549;DHT22;31270;48.328;10.096;2023-07-31T04:15:32;12.70;99.90
45549;DHT22;31270;48.328;10.096;2023-07-31T04:17:57;12.80;99.90
45549;DHT22;31270;48.328;10.096;2023-07-31T04:20:23;12.80;99.90
45549;DHT22;31270;48.328;10.096;2023-07-31T04:22:49;13.00;99.90
45549;DHT22;31270;48.328;10.096;2023-07-31T04:25:14;12.90;99.90
45549;DHT22;31270;48.328;10.096;2023-07-31T04:27:40;12.90;99.90
45549;DHT22;31270;48.328;10.096;2023-07-31T04:30:06;13.00;99.90
45549;DHT22;31270;48.328;10.096;2023-07-31T04:32:32;13.00;99.90
45549;DHT22;31270;48.328;10.096;2023-07-31T04:34:57;13.00;99.90
45549;DHT22;31270;48.328;10.096;2023-07-31T04:37:23;13.00;99.90
45549;DHT22;31270;48.328;10.096;2023-07-31T04:39:48;13.10;99.90
45549;DHT22;31270;48.328;10.096;2023-07-31T04:42:14;13.20;99.90
45549;DHT22;31270;48.328;10.096;2023-07-31T04:44:39;13.20;99.90
45549;DHT22;31270;48.328;10.096;2023-07-31T04:47:05;13.40;99.90
45549;DHT22;31270;48.328;10.096;2023-07-31T04:49:32;13.40;99.90
45549;DHT22;31270;48.328;10.096;2023-07-31T04:51:57;13.50;99.90
45549;DHT22;31270;48.328;10.096;2023-07-31T04:54:23;13.50;99.90
45549;DHT22;31270;48.328;10.096;2023-07-31T04:56:48;13.60;99.90
45549;DHT22;31270;48.328;10.096;2023-07-31T04:59:14;13.60;99.90
45549;DHT22;31270;48.328;10.096;2023-07-31T05:01:40;13.70;99.90
45549;DHT22;31270;48.328;10.096;2023-07-31T05:04:05;13.70;99.90
45549;DHT22;31270;48.328;10.096;2023-07-31T05:06:31;13.70;99.90
45549;DHT22;31270;48.328;10.096;2023-07-31T05:08:57;13.90;99.90
45549;DHT22;31270;48.328;10.096;2023-07-31T05:11:22;14.00;99.90
45549;DHT22;31270;48.328;10.096;2023-07-31T05:13:48;14.10;99.90
45549;DHT22;31270;48.328;10.096;2023-07-31T05:16:13;14.20;99.90
45549;DHT22;31270;48.328;10.096;2023-07-31T05:18:39;14.30;99.90
45549;DHT22;31270;48.328;10.096;2023-07-31T05:21:04;14.40;99.90
45549;DHT22;31270;48.328;10.096;2023-07-31T05:23:30;14.40;99.90
45549;DHT22;31270;48.328;10.096;2023-07-31T05:26:07;14.50;99.90
45549;DHT22;31270;48.328;10.096;2023-07-31T05:28:34;14.60;99.90
45549;DHT22;31270;48.328;10.096;2023-07-31T05:31:01;14.60;99.90
45549;DHT22;31270;48.328;10.096;2023-07-31T05:33:27;14.60;99.90
45549;DHT22;31270;48.328;10.096;2023-07-31T05:35:52;14.60;99.90
45549;DHT22;31270;48.328;10.096;2023-07-31T05:38:18;14.60;99.90
45549;DHT22;31270;48.328;10.096;2023-07-31T05:40:47;14.60;99.90
45549;DHT22;31270;48.328;10.096;2023-07-31T05:43:12;14.60;99.90
45549;DHT22;31270;48.328;10.096;2023-07-31T05:45:38;14.70;99.90
45549;DHT22;31270;48.328;10.096;2023-07-31T05:48:05;14.70;99.90
45549;DHT22;31270;48.328;10.096;2023-07-31T05:50:31;14.70;99.90
45549;DHT22;31270;48.328;10.096;2023-07-31T05:52:57;14.80;99.90
45549;DHT22;31270;48.328;10.096;2023-07-31T05:55:23;14.90;99.90
45549;DHT22;31270;48.328;10.096;2023-07-31T05:57:49;15.00;99.90
45549;DHT22;31270;48.328;10.096;2023-07-31T06:00:22;15.10;99.90
45549;DHT22;31270;48.328;10.096;2023-07-31T06:02:48;15.10;99.90
45549;DHT22;31270;48.328;10.096;2023-07-31T06:05:14;15.10;99.90
45549;DHT22;31270;48.328;10.096;2023-07-31T06:07:39;15.40;99.90
45549;DHT22;31270;48.328;10.096;2023-07-31T06:10:05;15.50;99.90
45549;DHT22;31270;48.328;10.096;2023-07-31T06:12:32;15.70;99.90
45549;DHT22;31270;48.328;10.096;2023-07-31T06:14:58;16.00;99.90
45549;DHT22;31270;48.328;10.096;2023-07-31T06:17:24;16.20;99.90
45549;DHT22;31270;48.328;10.096;2023-07-31T06:19:50;16.40;99.90
45549;DHT22;31270;48.328;10.096;2023-07-31T06:22:16;16.40;99.90
45549;DHT22;31270;48.328;10.096;2023-07-31T06:24:43;16.50;99.90
45549;DHT22;31270;48.328;10.096;2023-07-31T06:27:09;16.60;99.90
45549;DHT22;31270;48.328;10.096;2023-07-31T06:29:35;16.80;99.90
45549;DHT22;31270;48.328;10.096;2023-07-31T06:32:00;16.80;99.90
45549;DHT22;31270;48.328;10.096;2023-07-31T06:34:26;17.00;99.90
45549;DHT22;31270;48.328;10.096;2023-07-31T06:36:52;17.30;99.90
45549;DHT22;31270;48.328;10.096;2023-07-31T06:39:17;17.70;99.90
45549;DHT22;31270;48.328;10.096;2023-07-31T06:41:43;17.90;99.90
45549;DHT22;31270;48.328;10.096;2023-07-31T06:44:09;18.20;99.90
45549;DHT22;31270;48.328;10.096;2023-07-31T06:46:35;18.40;99.90
45549;DHT22;31270;48.328;10.096;2023-07-31T06:49:01;18.30;99.90
45549;DHT22;31270;48.328;10.096;2023-07-31T06:51:26;18.40;99.90
45549;DHT22;31270;48.328;10.096;2023-07-31T06:53:52;18.60;99.90
45549;DHT22;31270;48.328;10.096;2023-07-31T06:56:17;18.50;99.90
45549;DHT22;31270;48.328;10.096;2023-07-31T06:58:43;18.30;99.90
45549;DHT22;31270;48.328;10.096;2023-07-31T07:01:08;18.50;99.90
45549;DHT22;31270;48.328;10.096;2023-07-31T07:03:34;18.30;99.90
45549;DHT22;31270;48.328;10.096;2023-07-31T07:06:00;18.30;99.90
45549;DHT22;31270;48.328;10.096;2023-07-31T07:08:26;18.30;99.90
45549;DHT22;31270;48.328;10.096;2023-07-31T07:10:51;18.40;99.90
45549;DHT22;31270;48.328;10.096;2023-07-31T07:13:17;18.40;99.90
45549;DHT22;31270;48.328;10.096;2023-07-31T07:15:50;18.40;99.90
45549;DHT22;31270;48.328;10.096;2023-07-31T07:18:16;18.30;99.90
45549;DHT22;31270;48.328;10.096;2023-07-31T07:20:52;18.30;99.90
45549;DHT22;31270;48.328;10.096;2023-07-31T07:23:19;18.20;99.90
45549;DHT22;31270;48.328;10.096;2023-07-31T07:25:45;18.20;99.90
45549;DHT22;31270;48.328;10.096;2023-07-31T07:28:11;18.30;99.90
45549;DHT22;31270;48.328;10.096;2023-07-31T07:30:37;18.30;99.90
45549;DHT22;31270;48.328;10.096;2023-07-31T07:33:03;18.30;99.90
45549;DHT22;31270;48.328;10.096;2023-07-31T07:35:29;18.20;99.90
45549;DHT22;31270;48.328;10.096;2023-07-31T07:37:55;18.30;99.90
45549;DHT22;31270;48.328;10.096;2023-07-31T07:40:22;18.30;99.90
45549;DHT22;31270;48.328;10.096;2023-07-31T07:42:47;18.40;99.90
45549;DHT22;31270;48.328;10.096;2023-07-31T07:45:13;18.50;99.90
45549;DHT22;31270;48.328;10.096;2023-07-31T07:47:41;18.70;99.90
45549;DHT22;31270;48.328;10.096;2023-07-31T07:50:07;18.70;99.90
45549;DHT22;31270;48.328;10.096;2023-07-31T07:52:32;18.90;99.90
45549;DHT22;31270;48.328;10.096;2023-07-31T07:54:58;19.10;99.90
45549;DHT22;31270;48.328;10.096;2023-07-31T07:57:26;19.00;99.90
45549;DHT22;31270;48.328;10.096;2023-07-31T07:59:57;19.20;99.90
45549;DHT22;31270;48.328;10.096;2023-07-31T08:02:23;19.40;99.90
45549;DHT22;31270;48.328;10.096;2023-07-31T08:04:49;19.70;99.90
45549;DHT22;31270;48.328;10.096;2023-07-31T08:07:14;19.90;99.90
45549;DHT22;31270;48.328;10.096;2023-07-31T08:09:40;20.00;99.90
45549;DHT22;31270;48.328;10.096;2023-07-31T08:12:06;20.20;99.90
45549;DHT22;31270;48.328;10.096;2023-07-31T08:14:32;20.30;99.90
45549;DHT22;31270;48.328;10.096;2023-07-31T08:16:58;20.40;99.90
45549;DHT22;31270;48.328;10.096;2023-07-31T08:19:24;20.60;99.90
45549;DHT22;31270;48.328;10.096;2023-07-31T08:21:49;20.80;99.90
45549;DHT22;31270;48.328;10.096;2023-07-31T08:24:15;21.10;99.90
45549;DHT22;31270;48.328;10.096;2023-07-31T08:26:40;20.90;99.90
45549;DHT22;31270;48.328;10.096;2023-07-31T08:29:06;20.80;99.90
45549;DHT22;31270;48.328;10.096;2023-07-31T08:31:32;20.80;99.90
45549;DHT22;31270;48.328;10.096;2023-07-31T08:33:58;20.90;99.90
45549;DHT22;31270;48.328;10.096;2023-07-31T08:36:23;20.90;99.90
45549;DHT22;31270;48.328;10.096;2023-07-31T08:38:49;20.80;99.90
45549;DHT22;31270;48.328;10.096;2023-07-31T08:41:15;20.80;99.90
45549;DHT22;31270;48.328;10.096;2023-07-31T08:43:47;20.80;99.90
45549;DHT22;31270;48.328;10.096;2023-07-31T08:46:13;20.70;99.90
45549;DHT22;31270;48.328;10.096;2023-07-31T08:48:42;20.70;99.90
45549;DHT22;31270;48.328;10.096;2023-07-31T08:51:08;20.80;99.90
45549;DHT22;31270;48.328;10.096;2023-07-31T08:53:34;20.90;99.90
45549;DHT22;31270;48.328;10.096;2023-07-31T08:56:00;21.40;99.90
45549;DHT22;31270;48.328;10.096;2023-07-31T08:58:29;21.70;99.90
45549;DHT22;31270;48.328;10.096;2023-07-31T09:00:56;22.10;99.90
45549;DHT22;31270;48.328;10.096;2023-07-31T09:03:24;22.30;99.90
45549;DHT22;31270;48.328;10.096;2023-07-31T09:05:51;22.40;99.90
45549;DHT22;31270;48.328;10.096;2023-07-31T09:08:21;22.50;99.90
45549;DHT22;31270;48.328;10.096;2023-07-31T09:10:47;22.80;99.90
45549;DHT22;31270;48.328;10.096;2023-07-31T09:13:15;22.90;99.90
45549;DHT22;31270;48.328;10.096;2023-07-31T09:15:43;23.10;99.90
45549;DHT22;31270;48.328;10.096;2023-07-31T09:18:09;23.60;99.90
45549;DHT22;31270;48.328;10.096;2023-07-31T09:20:35;23.70;99.90
45549;DHT22;31270;48.328;10.096;2023-07-31T09:23:13;23.80;99.90
45549;DHT22;31270;48.328;10.096;2023-07-31T09:25:40;23.80;99.90
45549;DHT22;31270;48.328;10.096;2023-07-31T09:28:09;24.00;99.90
45549;DHT22;31270;48.328;10.096;2023-07-31T09:30:47;24.00;99.90
45549;DHT22;31270;48.328;10.096;2023-07-31T09:33:13;23.70;99.90
45549;DHT22;31270;48.328;10.096;2023-07-31T09:35:39;23.90;99.90
45549;DHT22;31270;48.328;10.096;2023-07-31T09:38:13;23.70;99.90
45549;DHT22;31270;48.328;10.096;2023-07-31T09:40:45;24.00;99.90
45549;DHT22;31270;48.328;10.096;2023-07-31T09:43:13;24.30;99.90
45549;DHT22;31270;48.328;10.096;2023-07-31T09:45:41;24.80;99.90
45549;DHT22;31270;48.328;10.096;2023-07-31T09:48:17;24.80;99.90
45549;DHT22;31270;48.328;10.096;2023-07-31T09:50:44;24.90;99.90
45549;DHT22;31270;48.328;10.096;2023-07-31T09:53:10;25.00;99.90
45549;DHT22;31270;48.328;10.096;2023-07-31T09:55:37;25.50;99.90
45549;DHT22;31270;48.328;10.096;2023-07-31T09:58:08;25.80;99.90
45549;DHT22;31270;48.328;10.096;2023-07-31T10:00:34;25.90;99.90
45549;DHT22;31270;48.328;10.096;2023-07-31T10:03:02;25.80;99.90
45549;DHT22;31270;48.328;10.096;2023-07-31T10:05:33;25.90;99.90
45549;DHT22;31270;48.328;10.096;2023-07-31T10:07:59;25.50;99.90
45549;DHT22;31270;48.328;10.096;2023-07-31T10:10:26;25.10;99.90
45549;DHT22;31270;48.328;10.096;2023-07-31T10:12:53;25.30;99.90
45549;DHT22;31270;48.328;10.096;2023-07-31T10:15:22;25.10;99.90
45549;DHT22;31270;48.328;10.096;2023-07-31T10:17:49;25.30;99.90
45549;DHT22;31270;48.328;10.096;2023-07-31T10:20:15;25.40;99.90
45549;DHT22;31270;48.328;10.096;2023-07-31T10:22:42;25.40;99.90
45549;DHT22;31270;48.328;10.096;2023-07-31T10:25:09;25.40;99.90
45549;DHT22;31270;48.328;10.096;2023-07-31T10:27:36;25.80;99.90
45549;DHT22;31270;48.328;10.096;2023-07-31T10:30:05;25.80;99.90
45549;DHT22;31270;48.328;10.096;2023-07-31T10:32:31;25.80;99.90
45549;DHT22;31270;48.328;10.096;2023-07-31T10:34:58;26.10;99.90
45549;DHT22;31270;48.328;10.096;2023-07-31T10:37:38;26.40;99.90
45549;DHT22;31270;48.328;10.096;2023-07-31T10:40:06;26.20;99.90
45549;DHT22;31270;48.328;10.096;2023-07-31T10:42:36;26.10;99.90
45549;DHT22;31270;48.328;10.096;2023-07-31T10:45:06;26.30;99.90
45549;DHT22;31270;48.328;10.096;2023-07-31T10:47:45;26.20;99.90
45549;DHT22;31270;48.328;10.096;2023-07-31T10:52:47;25.40;99.90
45549;DHT22;31270;48.328;10.096;2023-07-31T10:57:55;25.80;99.90
45549;DHT22;31270;48.328;10.096;2023-07-31T11:00:30;26.10;99.90
45549;DHT22;31270;48.328;10.096;2023-07-31T11:03:18;26.00;99.90
45549;DHT22;31270;48.328;10.096;2023-07-31T11:05:51;25.90;99.90
45549;DHT22;31270;48.328;10.096;2023-07-31T11:08:31;26.10;99.90
45549;DHT22;31270;48.328;10.096;2023-07-31T11:13:30;26.10;99.90
45549;DHT22;31270;48.328;10.096;2023-07-31T11:15:55;26.30;99.90
45549;DHT22;31270;48.328;10.096;2023-07-31T11:18:21;26.30;99.90
45549;DHT22;31270;48.328;10.096;2023-07-31T11:20:47;26.70;99.90
45549;DHT22;31270;48.328;10.096;2023-07-31T11:23:15;27.30;99.90
45549;DHT22;31270;48.328;10.096;2023-07-31T11:25:41;27.50;99.90
45549;DHT22;31270;48.328;10.096;2023-07-31T11:28:18;27.70;99.90
45549;DHT22;31270;48.328;10.096;2023-07-31T11:30:45;27.80;99.90
45549;DHT22;31270;48.328;10.096;2023-07-31T11:33:13;27.70;99.90
45549;DHT22;31270;48.328;10.096;2023-07-31T11:35:46;27.90;99.90
45549;DHT22;31270;48.328;10.096;2023-07-31T11:38:21;28.00;99.90
45549;DHT22;31270;48.328;10.096;2023-07-31T11:40:49;28.20;99.90
45549;DHT22;31270;48.328;10.096;2023-07-31T11:43:15;28.20;99.90
45549;DHT22;31270;48.328;10.096;2023-07-31T11:45:47;28.30;99.90
45549;DHT22;31270;48.328;10.096;2023-07-31T11:48:32;28.50;99.90
45549;DHT22;31270;48.328;10.096;2023-07-31T11:51:06;28.40;99.90
45549;DHT22;31270;48.328;10.096;2023-07-31T11:53:50;28.40;99.90
45549;DHT22;31270;48.328;10.096;2023-07-31T11:56:19;28.00;99.90
45549;DHT22;31270;48.328;10.096;2023-07-31T11:58:50;27.60;99.90
45549;DHT22;31270;48.328;10.096;2023-07-31T12:01:19;27.30;99.90
45549;DHT22;31270;48.328;10.096;2023-07-31T12:03:46;27.00;99.90
45549;DHT22;31270;48.328;10.096;2023-07-31T12:06:12;26.60;99.90
45549;DHT22;31270;48.328;10.096;2023-07-31T12:08:37;26.30;99.90
45549;DHT22;31270;48.328;10.096;2023-07-31T12:11:08;26.20;99.90
45549;DHT22;31270;48.328;10.096;2023-07-31T12:13:38;26.30;99.90
45549;DHT22;31270;48.328;10.096;2023-07-31T12:16:04;26.40;99.90
45549;DHT22;31270;48.328;10.096;2023-07-31T12:18:35;26.40;99.90
45549;DHT22;31270;48.328;10.096;2023-07-31T12:21:02;26.40;99.90
45549;DHT22;31270;48.328;10.096;2023-07-31T12:23:31;26.30;99.90
45549;DHT22;31270;48.328;10.096;2023-07-31T12:28:42;25.60;99.90
45549;DHT22;31270;48.328;10.096;2023-07-31T12:31:10;25.40;99.90
45549;DHT22;31270;48.328;10.096;2023-07-31T12:33:38;25.10;99.90
45549;DHT22;31270;48.328;10.096;2023-07-31T12:36:08;24.90;99.90
45549;DHT22;31270;48.328;10.096;2023-07-31T12:38:34;24.70;99.90
45549;DHT22;31270;48.328;10.096;2023-07-31T12:41:00;24.50;99.90
45549;DHT22;31270;48.328;10.096;2023-07-31T12:43:26;24.60;99.90
45549;DHT22;31270;48.328;10.096;2023-07-31T12:45:54;24.80;99.90
45549;DHT22;31270;48.328;10.096;2023-07-31T12:48:20;24.70;99.90
45549;DHT22;31270;48.328;10.096;2023-07-31T12:50:45;24.90;99.90
45549;DHT22;31270;48.328;10.096;2023-07-31T12:53:11;24.80;99.90
45549;DHT22;31270;48.328;10.096;2023-07-31T12:55:37;24.70;99.90
45549;DHT22;31270;48.328;10.096;2023-07-31T12:58:03;24.80;99.90
45549;DHT22;31270;48.328;10.096;2023-07-31T13:00:29;24.80;99.90
45549;DHT22;31270;48.328;10.096;2023-07-31T13:02:55;24.80;99.90
45549;DHT22;31270;48.328;10.096;2023-07-31T13:05:21;24.80;99.90
45549;DHT22;31270;48.328;10.096;2023-07-31T13:07:47;24.80;99.90
45549;DHT22;31270;48.328;10.096;2023-07-31T13:10:13;24.30;99.90
45549;DHT22;31270;48.328;10.096;2023-07-31T13:12:39;24.30;99.90
45549;DHT22;31270;48.328;10.096;2023-07-31T13:15:06;24.20;99.90
45549;DHT22;31270;48.328;10.096;2023-07-31T13:17:32;24.20;99.90
45549;DHT22;31270;48.328;10.096;2023-07-31T13:19:58;23.80;99.90
45549;DHT22;31270;48.328;10.096;2023-07-31T13:22:24;23.80;99.90
45549;DHT22;31270;48.328;10.096;2023-07-31T13:24:50;23.60;99.90
45549;DHT22;31270;48.328;10.096;2023-07-31T13:27:15;23.60;99.90
45549;DHT22;31270;48.328;10.096;2023-07-31T13:29:46;23.60;99.90
45549;DHT22;31270;48.328;10.096;2023-07-31T13:32:12;23.60;99.90
45549;DHT22;31270;48.328;10.096;2023-07-31T13:34:37;23.60;99.90
45549;DHT22;31270;48.328;10.096;2023-07-31T13:37:03;23.50;99.90
45549;DHT22;31270;48.328;10.096;2023-07-31T13:39:31;23.50;99.90
45549;DHT22;31270;48.328;10.096;2023-07-31T13:41:58;23.50;99.90
45549;DHT22;31270;48.328;10.096;2023-07-31T13:44:23;23.40;99.90
45549;DHT22;31270;48.328;10.096;2023-07-31T13:46:49;23.50;99.90
45549;DHT22;31270;48.328;10.096;2023-07-31T13:49:14;23.50;99.90
45549;DHT22;31270;48.328;10.096;2023-07-31T13:51:40;23.40;99.90
45549;DHT22;31270;48.328;10.096;2023-07-31T13:54:06;23.50;99.90
45549;DHT22;31270;48.328;10.096;2023-07-31T13:56:36;23.50;99.90
45549;DHT22;31270;48.328;10.096;2023-07-31T13:59:02;23.50;99.90
45549;DHT22;31270;48.328;10.096;2023-07-31T14:01:28;23.50;99.90
45549;DHT22;31270;48.328;10.096;2023-07-31T14:03:53;23.50;99.90
45549;DHT22;31270;48.328;10.096;2023-07-31T14:06:19;23.40;99.90
45549;DHT22;31270;48.328;10.096;2023-07-31T14:08:45;23.20;99.90
45549;DHT22;31270;48.328;10.096;2023-07-31T14:11:10;23.20;99.90
45549;DHT22;31270;48.328;10.096;2023-07-31T14:13:36;23.10;99.90
45549;DHT22;31270;48.328;10.096;2023-07-31T14:16:02;22.90;99.90
45549;DHT22;31270;48.328;10.096;2023-07-31T14:18:27;22.80;99.90
45549;DHT22;31270;48.328;10.096;2023-07-31T14:20:53;22.60;99.90
45549;DHT22;31270;48.328;10.096;2023-07-31T14:23:19;22.70;99.90
45549;DHT22;31270;48.328;10.096;2023-07-31T14:25:45;22.50;99.90
45549;DHT22;31270;48.328;10.096;2023-07-31T14:28:11;22.40;99.90
45549;DHT22;31270;48.328;10.096;2023-07-31T14:30:37;22.40;99.90
45549;DHT22;31270;48.328;10.096;2023-07-31T14:33:02;22.30;99.90
45549;DHT22;31270;48.328;10.096;2023-07-31T14:35:28;22.30;99.90
45549;DHT22;31270;48.328;10.096;2023-07-31T14:37:54;22.30;99.90
45549;DHT22;31270;48.328;10.096;2023-07-31T14:40:19;22.30;99.90
45549;DHT22;31270;48.328;10.096;2023-07-31T14:42:45;22.40;99.90
45549;DHT22;31270;48.328;10.096;2023-07-31T14:45:11;22.30;99.90
45549;DHT22;31270;48.328;10.096;2023-07-31T14:47:36;22.30;99.90
45549;DHT22;31270;48.328;10.096;2023-07-31T14:50:03;22.20;99.90
45549;DHT22;31270;48.328;10.096;2023-07-31T14:52:29;22.20;99.90
45549;DHT22;31270;48.328;10.096;2023-07-31T14:54:54;22.30;99.90
45549;DHT22;31270;48.328;10.096;2023-07-31T14:57:20;22.40;99.90
45549;DHT22;31270;48.328;10.096;2023-07-31T14:59:46;22.50;99.90
45549;DHT22;31270;48.328;10.096;2023-07-31T15:02:12;22.60;99.90
45549;DHT22;31270;48.328;10.096;2023-07-31T15:04:38;22.70;99.90
45549;DHT22;31270;48.328;10.096;2023-07-31T15:07:04;22.80;99.90
45549;DHT22;31270;48.328;10.096;2023-07-31T15:09:30;22.70;99.90
45549;DHT22;31270;48.328;10.096;2023-07-31T15:11:56;22.70;99.90
45549;DHT22;31270;48.328;10.096;2023-07-31T15:14:23;22.80;99.90
45549;DHT22;31270;48.328;10.096;2023-07-31T15:16:48;22.90;99.90
45549;DHT22;31270;48.328;10.096;2023-07-31T15:19:15;22.90;99.90
45549;DHT22;31270;48.328;10.096;2023-07-31T15:21:40;23.00;99.90
45549;DHT22;31270;48.328;10.096;2023-07-31T15:24:06;23.00;99.90
45549;DHT22;31270;48.328;10.096;2023-07-31T15:26:32;23.10;99.90